Disclaimer

Please do not use the information listed here in-flight or in-navigation, as they are not provided to us by the airports but are provided by volunteers, so they might be outdated.

Search


Regions


Airport information page

Radio informations:
Approach (APP) - 130.6 MHz

Airport informations:
Latitude: 63° 00' 25.74" N
Longitude: 027° 47' 51.92" E
Elevation: 323 feet - 98 meters
Operating hours: N/A
Operating agency: Civil government, landing fees and diplomatic clearance may be required
Timezone: UTC+2(+3DT)
Fuel: Jet A1, without icing nhibitor.

100/130 MIL Spec, low lead, aviation gasoline (BLUE)

Runway information:
06/24 - 4921 x 148 feet< - >1500 x 45 meters
15/33 - 9186 x 197 feet< - >2800 x 60 meters

Recent METARs:
EFKU 180920Z AUTO 02010KT 9999 OVC035 02/M05 Q1038
EFKU 180950Z AUTO 02008KT 9999 BKN035 02/M05 Q1038
EFKU 181020Z AUTO 03006KT 9999 OVC032 02/M04 Q1039

Airport on the map: